createdAt,value
2023-02-21T00:00:32.796Z,8.80
2023-02-21T00:03:17.794Z,8.80
2023-02-21T00:06:02.730Z,8.80
2023-02-21T00:08:47.871Z,8.80
2023-02-21T00:11:32.875Z,8.80
2023-02-21T00:14:17.788Z,8.80
2023-02-21T00:17:02.845Z,8.80
2023-02-21T00:19:47.910Z,8.80
2023-02-21T00:22:32.871Z,8.70
2023-02-21T00:25:17.855Z,8.80
2023-02-21T00:28:03.032Z,8.80
2023-02-21T00:30:48.146Z,8.80
2023-02-21T00:33:33.162Z,8.80
2023-02-21T00:36:18.113Z,8.80
2023-02-21T00:39:03.317Z,8.80
2023-02-21T00:41:48.268Z,8.80
2023-02-21T00:44:33.227Z,8.80
2023-02-21T00:47:18.398Z,8.80
2023-02-21T00:50:03.372Z,8.80
2023-02-21T00:52:48.533Z,8.80
2023-02-21T00:55:33.523Z,8.80
2023-02-21T00:58:18.649Z,8.90
2023-02-21T01:01:03.653Z,8.80
2023-02-21T01:03:48.889Z,8.80
2023-02-21T01:06:34.048Z,8.80
2023-02-21T01:09:18.992Z,8.80
2023-02-21T01:12:04.098Z,8.80
2023-02-21T01:14:48.955Z,8.80
2023-02-21T01:17:34.072Z,8.80
2023-02-21T01:20:19.588Z,8.80
2023-02-21T01:23:05.617Z,8.80
2023-02-21T01:25:50.818Z,8.80
2023-02-21T01:28:36.117Z,8.80
2023-02-21T01:31:21.431Z,8.80
2023-02-21T01:34:06.489Z,8.80
2023-02-21T01:36:51.651Z,8.80
2023-02-21T01:39:36.735Z,8.80
2023-02-21T01:42:22.332Z,8.80
2023-02-21T01:45:08.096Z,8.80
2023-02-21T01:47:53.144Z,8.70
2023-02-21T01:50:45.196Z,8.70
2023-02-21T01:53:48.726Z,8.70
2023-02-21T01:56:33.881Z,8.70
2023-02-21T01:59:19.771Z,8.70
2023-02-21T02:02:09.411Z,8.70
2023-02-21T02:04:54.697Z,8.70
2023-02-21T02:07:39.985Z,8.70
2023-02-21T02:10:25.623Z,8.70
2023-02-21T02:13:07.189Z,8.70
2023-02-21T02:15:44.849Z,8.70
2023-02-21T02:18:43.207Z,8.70
2023-02-21T02:21:13.477Z,8.60
2023-02-21T02:23:43.204Z,8.70
2023-02-21T02:26:50.848Z,8.60
2023-02-21T02:29:59.446Z,8.60
2023-02-21T02:32:49.929Z,8.70
2023-02-21T02:35:26.021Z,8.70
2023-02-21T02:38:03.902Z,8.70
2023-02-21T02:40:35.592Z,8.70
2023-02-21T02:43:22.602Z,8.60
2023-02-21T02:46:05.913Z,8.70
2023-02-21T02:48:35.320Z,8.70
2023-02-21T02:51:03.340Z,8.60
2023-02-21T02:53:30.087Z,8.70
2023-02-21T02:55:57.628Z,8.60
2023-02-21T02:58:32.052Z,8.60
2023-02-21T03:01:35.878Z,8.60
2023-02-21T03:04:35.246Z,8.60
2023-02-21T03:07:36.524Z,8.60
2023-02-21T03:10:12.134Z,8.60
2023-02-21T03:12:55.850Z,8.60
2023-02-21T03:15:46.622Z,8.60
2023-02-21T03:18:19.214Z,8.60
2023-02-21T03:20:45.815Z,8.60
2023-02-21T03:23:13.270Z,8.60
2023-02-21T03:25:39.873Z,8.60
2023-02-21T03:28:06.501Z,8.60
2023-02-21T03:30:33.182Z,8.60
2023-02-21T03:32:59.824Z,8.60
2023-02-21T03:35:29.815Z,8.60
2023-02-21T03:37:56.454Z,8.60
2023-02-21T03:40:30.615Z,8.60
2023-02-21T03:42:58.395Z,8.60
2023-02-21T03:45:24.995Z,8.60
2023-02-21T03:47:51.717Z,8.70
2023-02-21T03:50:18.368Z,8.70
2023-02-21T03:52:45.050Z,8.70
2023-02-21T03:55:11.679Z,8.70
2023-02-21T03:57:38.298Z,8.70
2023-02-21T04:00:05.200Z,8.70
2023-02-21T04:02:31.860Z,8.70
2023-02-21T04:04:58.471Z,8.70
2023-02-21T04:07:25.115Z,8.70
2023-02-21T04:09:51.708Z,8.60
2023-02-21T04:12:18.326Z,8.60
2023-02-21T04:14:44.917Z,8.60
2023-02-21T04:17:11.627Z,8.60
2023-02-21T04:19:38.239Z,8.50
2023-02-21T04:22:04.857Z,8.50
2023-02-21T04:24:31.494Z,8.50
2023-02-21T04:26:58.658Z,8.50
2023-02-21T04:29:25.324Z,8.50
2023-02-21T04:31:52.187Z,8.50
2023-02-21T04:34:18.983Z,8.50
2023-02-21T04:36:45.632Z,8.50
2023-02-21T04:39:12.245Z,8.50
2023-02-21T04:41:39.042Z,8.50
2023-02-21T04:44:06.269Z,8.40
2023-02-21T04:46:33.006Z,8.40
2023-02-21T04:48:59.623Z,8.40
2023-02-21T04:51:26.352Z,8.40
2023-02-21T04:53:53.244Z,8.40
2023-02-21T04:56:21.053Z,8.40
2023-02-21T04:58:47.920Z,8.50
2023-02-21T05:01:15.948Z,8.40
2023-02-21T05:03:42.959Z,8.40
2023-02-21T05:06:09.586Z,8.40
2023-02-21T05:08:36.592Z,8.40
2023-02-21T05:11:03.609Z,8.40
2023-02-21T05:13:30.228Z,8.40
2023-02-21T05:15:57.091Z,8.40
2023-02-21T05:18:28.497Z,8.40
2023-02-21T05:20:55.434Z,8.40
2023-02-21T05:23:33.831Z,8.40
2023-02-21T05:26:09.100Z,8.40
2023-02-21T05:28:36.231Z,8.40
2023-02-21T05:31:02.990Z,8.40
2023-02-21T05:33:30.040Z,8.40
2023-02-21T05:35:57.089Z,8.40
2023-02-21T05:38:24.004Z,8.40
2023-02-21T05:40:50.784Z,8.40
2023-02-21T05:43:17.650Z,8.40
2023-02-21T05:45:44.367Z,8.40
2023-02-21T05:48:11.067Z,8.40
2023-02-21T05:50:39.582Z,8.40
2023-02-21T05:53:06.785Z,8.40
2023-02-21T05:55:33.455Z,8.50
2023-02-21T05:58:00.115Z,8.50
2023-02-21T06:00:28.215Z,8.50
2023-02-21T06:02:55.129Z,8.50
2023-02-21T06:05:21.903Z,8.50
2023-02-21T06:07:48.669Z,8.50
2023-02-21T06:10:15.765Z,8.60
2023-02-21T06:12:42.788Z,8.50
2023-02-21T06:15:09.672Z,8.50
2023-02-21T06:17:36.964Z,8.60
2023-02-21T06:20:05.033Z,8.60
2023-02-21T06:22:31.732Z,8.60
2023-02-21T06:24:58.327Z,8.60
2023-02-21T06:27:25.997Z,8.60
2023-02-21T06:29:52.664Z,8.60
2023-02-21T06:32:19.398Z,8.70
2023-02-21T06:34:46.036Z,8.70
2023-02-21T06:37:12.700Z,8.60
2023-02-21T06:39:39.835Z,8.60
2023-02-21T06:42:06.607Z,8.60
2023-02-21T06:44:33.248Z,8.60
2023-02-21T06:47:00.389Z,8.50
2023-02-21T06:49:27.051Z,8.50
2023-02-21T06:51:53.687Z,8.50
2023-02-21T06:54:20.388Z,8.50
2023-02-21T06:56:46.995Z,8.50
2023-02-21T06:59:13.659Z,8.50
2023-02-21T07:01:40.648Z,8.50
2023-02-21T07:04:07.585Z,8.50
2023-02-21T07:06:34.208Z,8.50
2023-02-21T07:09:00.838Z,8.50
2023-02-21T07:11:27.583Z,8.50
2023-02-21T07:13:54.634Z,8.50
2023-02-21T07:16:21.310Z,8.50
2023-02-21T07:18:48.006Z,8.50
2023-02-21T07:21:15.105Z,8.50
2023-02-21T07:23:43.704Z,8.50
2023-02-21T07:26:10.641Z,8.50
2023-02-21T07:28:37.352Z,8.50
2023-02-21T07:31:04.130Z,8.50
2023-02-21T07:33:30.836Z,8.50
2023-02-21T07:35:57.452Z,8.60
2023-02-21T07:38:25.270Z,8.60
2023-02-21T07:40:54.426Z,8.60
2023-02-21T07:43:21.111Z,8.70
2023-02-21T07:45:47.726Z,8.70
2023-02-21T07:48:14.620Z,8.80
2023-02-21T07:50:42.171Z,8.70
2023-02-21T07:53:11.141Z,8.80
2023-02-21T07:55:37.971Z,8.80
2023-02-21T07:58:04.729Z,8.80
2023-02-21T08:00:31.471Z,8.90
2023-02-21T08:02:58.209Z,8.90
2023-02-21T08:05:25.138Z,8.90
2023-02-21T08:07:51.831Z,8.90
2023-02-21T08:10:23.468Z,8.90
2023-02-21T08:12:50.110Z,9.00
2023-02-21T08:15:16.819Z,9.00
2023-02-21T08:17:43.479Z,9.00
2023-02-21T08:20:10.242Z,9.10
2023-02-21T08:22:37.337Z,9.10
2023-02-21T08:25:04.055Z,9.10
2023-02-21T08:27:30.954Z,9.20
2023-02-21T08:29:58.036Z,9.20
2023-02-21T08:32:24.709Z,9.20
2023-02-21T08:34:51.605Z,9.30
2023-02-21T08:37:19.936Z,9.30
2023-02-21T08:39:47.541Z,9.30
2023-02-21T08:42:15.458Z,9.40
2023-02-21T08:44:48.333Z,9.30
2023-02-21T08:47:15.264Z,9.30
2023-02-21T08:49:47.316Z,9.40
2023-02-21T08:52:17.543Z,9.40
2023-02-21T08:54:44.519Z,9.40
2023-02-21T08:57:11.206Z,9.50
2023-02-21T08:59:42.712Z,9.50
2023-02-21T09:02:20.885Z,9.50
2023-02-21T09:04:47.542Z,9.60
2023-02-21T09:07:15.118Z,9.60
2023-02-21T09:09:41.795Z,9.60
2023-02-21T09:12:08.627Z,9.60
2023-02-21T09:14:36.066Z,9.70
2023-02-21T09:17:03.955Z,9.70
2023-02-21T09:19:30.746Z,9.70
2023-02-21T09:21:57.471Z,9.80
2023-02-21T09:24:25.358Z,9.80
2023-02-21T09:26:56.457Z,9.70
2023-02-21T09:29:26.539Z,9.80
2023-02-21T09:31:54.555Z,9.80
2023-02-21T09:34:22.240Z,9.80
2023-02-21T09:36:50.725Z,9.80
2023-02-21T09:39:18.323Z,9.80
2023-02-21T09:41:44.931Z,9.90
2023-02-21T09:44:20.584Z,9.90
2023-02-21T09:46:52.860Z,9.90
2023-02-21T09:49:39.948Z,9.90
2023-02-21T09:52:10.559Z,10.00
2023-02-21T09:54:38.942Z,10.10
2023-02-21T09:57:06.968Z,10.20
2023-02-21T09:59:33.632Z,10.20
2023-02-21T10:02:16.137Z,10.30
2023-02-21T10:05:18.804Z,10.30
2023-02-21T10:08:03.982Z,10.40
2023-02-21T10:10:44.450Z,10.40
2023-02-21T10:13:16.937Z,10.50
2023-02-21T10:15:49.467Z,10.50
2023-02-21T10:18:28.393Z,10.40
2023-02-21T10:20:57.885Z,10.40
2023-02-21T10:23:31.663Z,10.50
2023-02-21T10:26:02.814Z,10.60
2023-02-21T10:28:29.714Z,10.60
2023-02-21T10:30:59.396Z,10.60
2023-02-21T10:33:26.388Z,10.60
2023-02-21T10:35:55.152Z,10.60
2023-02-21T10:38:24.740Z,10.80
2023-02-21T10:40:52.422Z,10.90
2023-02-21T10:43:42.097Z,11.10
2023-02-21T10:46:31.342Z,11.20
2023-02-21T10:49:29.338Z,11.30
2023-02-21T10:52:13.680Z,11.50
2023-02-21T10:54:40.451Z,11.60
2023-02-21T10:57:08.712Z,11.60
2023-02-21T10:59:37.048Z,11.60
2023-02-21T11:02:04.482Z,11.50
2023-02-21T11:04:34.595Z,11.50
2023-02-21T11:07:09.254Z,11.30
2023-02-21T11:09:37.596Z,11.30
2023-02-21T11:12:18.968Z,11.20
2023-02-21T11:15:16.244Z,11.20
2023-02-21T11:17:43.718Z,11.20
2023-02-21T11:20:20.074Z,11.20
2023-02-21T11:22:49.994Z,11.20
2023-02-21T11:25:24.369Z,11.10
2023-02-21T11:28:26.604Z,11.10
2023-02-21T11:31:02.120Z,11.00
2023-02-21T11:33:28.765Z,11.00
2023-02-21T11:36:08.687Z,11.00
2023-02-21T11:38:36.349Z,11.00
2023-02-21T11:41:04.752Z,11.10
2023-02-21T11:43:32.353Z,11.10
2023-02-21T11:46:16.187Z,11.20
2023-02-21T11:49:00.124Z,11.30
2023-02-21T11:51:51.311Z,11.30
2023-02-21T11:54:18.340Z,11.40
2023-02-21T11:57:06.729Z,11.40
2023-02-21T11:59:39.165Z,11.40
2023-02-21T12:02:34.446Z,11.30
2023-02-21T12:05:11.824Z,11.30
2023-02-21T12:07:49.818Z,11.30
2023-02-21T12:10:59.797Z,11.20
2023-02-21T12:13:43.586Z,11.20
2023-02-21T12:16:28.510Z,11.20
2023-02-21T12:19:21.330Z,11.30
2023-02-21T12:21:53.782Z,11.30
2023-02-21T12:24:38.713Z,11.30
2023-02-21T12:27:19.074Z,11.30
2023-02-21T12:29:49.978Z,11.40
2023-02-21T12:32:35.766Z,11.40
2023-02-21T12:35:27.410Z,11.30
2023-02-21T12:37:57.133Z,11.40
2023-02-21T12:40:45.610Z,11.40
2023-02-21T12:43:36.601Z,11.40
2023-02-21T12:46:30.934Z,11.50
2023-02-21T12:49:11.986Z,11.40
2023-02-21T12:51:44.644Z,11.50
2023-02-21T12:54:18.643Z,11.50
2023-02-21T12:56:57.216Z,11.60
2023-02-21T12:59:28.360Z,11.70
2023-02-21T13:02:13.400Z,11.80
2023-02-21T13:04:59.497Z,11.90
2023-02-21T13:07:38.297Z,12.00
2023-02-21T13:10:24.784Z,12.00
2023-02-21T13:12:58.809Z,12.10
2023-02-21T13:15:27.087Z,12.20
2023-02-21T13:18:06.230Z,12.30
2023-02-21T13:20:37.316Z,12.40
2023-02-21T13:23:03.922Z,12.40
2023-02-21T13:25:49.484Z,12.30
2023-02-21T13:28:25.282Z,12.30
2023-02-21T13:30:53.215Z,12.20
2023-02-21T13:33:44.289Z,12.10
2023-02-21T13:36:30.669Z,12.10
2023-02-21T13:39:18.678Z,12.10
2023-02-21T13:41:55.798Z,12.10
2023-02-21T13:44:33.732Z,12.20
2023-02-21T13:47:06.180Z,12.10
2023-02-21T13:49:54.075Z,12.00
2023-02-21T13:52:24.055Z,11.90
2023-02-21T13:55:14.032Z,11.90
2023-02-21T13:57:40.569Z,11.90
2023-02-21T14:00:25.146Z,11.90
2023-02-21T14:02:55.531Z,11.90
2023-02-21T14:05:22.788Z,11.90
2023-02-21T14:08:06.374Z,12.00
2023-02-21T14:10:49.409Z,12.00
2023-02-21T14:13:41.958Z,11.90
2023-02-21T14:16:09.969Z,11.90
2023-02-21T14:18:39.712Z,11.90
2023-02-21T14:21:30.365Z,11.90
2023-02-21T14:24:00.313Z,11.90
2023-02-21T14:26:52.965Z,11.90
2023-02-21T14:29:36.188Z,11.80
2023-02-21T14:32:03.530Z,11.80
2023-02-21T14:34:37.659Z,11.80
2023-02-21T14:37:36.710Z,11.80
2023-02-21T14:40:10.512Z,11.80
2023-02-21T14:42:50.529Z,11.80
2023-02-21T14:45:24.037Z,11.80
2023-02-21T14:48:15.691Z,11.80
2023-02-21T14:51:14.723Z,11.80
2023-02-21T14:54:00.462Z,11.90
2023-02-21T14:56:33.763Z,11.90
2023-02-21T14:59:25.138Z,11.90
2023-02-21T15:02:13.358Z,11.80
2023-02-21T15:04:51.043Z,11.80
2023-02-21T15:07:24.600Z,11.80
2023-02-21T15:10:18.095Z,11.70
2023-02-21T15:12:50.196Z,11.70
2023-02-21T15:15:44.993Z,11.60
2023-02-21T15:18:28.347Z,11.60
2023-02-21T15:21:04.171Z,11.50
2023-02-21T15:23:31.758Z,11.50
2023-02-21T15:25:59.928Z,11.40
2023-02-21T15:28:27.708Z,11.40
2023-02-21T15:31:08.646Z,11.30
2023-02-21T15:33:39.537Z,11.30
2023-02-21T15:36:23.415Z,11.20
2023-02-21T15:39:08.782Z,11.20
2023-02-21T15:41:41.910Z,11.20
2023-02-21T15:44:28.709Z,11.20
2023-02-21T15:47:01.584Z,11.10
2023-02-21T15:49:33.429Z,11.10
2023-02-21T15:52:02.425Z,11.10
2023-02-21T15:54:31.834Z,11.10
2023-02-21T15:57:08.604Z,11.00
2023-02-21T15:59:36.493Z,10.90
2023-02-21T16:02:23.220Z,10.90
2023-02-21T16:04:51.468Z,10.80
2023-02-21T16:07:29.098Z,10.80
2023-02-21T16:10:04.520Z,10.80
2023-02-21T16:12:39.588Z,10.70
2023-02-21T16:15:13.185Z,10.70
2023-02-21T16:17:40.156Z,10.70
2023-02-21T16:20:20.049Z,10.60
2023-02-21T16:23:07.300Z,10.60
2023-02-21T16:25:34.746Z,10.60
2023-02-21T16:28:01.513Z,10.50
2023-02-21T16:30:29.789Z,10.50
2023-02-21T16:33:06.727Z,10.50
2023-02-21T16:35:33.595Z,10.40
2023-02-21T16:38:00.800Z,10.30
2023-02-21T16:40:33.840Z,10.30
2023-02-21T16:43:01.852Z,10.20
2023-02-21T16:45:32.073Z,10.10
2023-02-21T16:48:01.424Z,10.10
2023-02-21T16:50:36.193Z,10.10
2023-02-21T16:53:02.930Z,10.10
2023-02-21T16:55:29.805Z,10.10
2023-02-21T16:58:00.063Z,10.10
2023-02-21T17:03:16.510Z,10.10
2023-02-21T17:05:43.179Z,10.00
2023-02-21T17:08:09.866Z,10.00
2023-02-21T17:10:36.648Z,10.00
2023-02-21T17:13:03.735Z,10.00
2023-02-21T17:15:32.077Z,10.00
2023-02-21T17:17:59.374Z,10.00
2023-02-21T17:20:26.062Z,10.00
2023-02-21T17:22:52.983Z,10.00
2023-02-21T17:25:20.352Z,10.00
2023-02-21T17:27:47.052Z,9.90
2023-02-21T17:30:14.392Z,9.90
2023-02-21T17:32:41.056Z,9.80
2023-02-21T17:35:08.050Z,9.80
2023-02-21T17:37:34.690Z,9.70
2023-02-21T17:40:01.307Z,9.70
2023-02-21T17:42:27.998Z,9.70
2023-02-21T17:44:54.640Z,9.70
2023-02-21T17:47:22.304Z,9.60
2023-02-21T17:49:49.499Z,9.70
2023-02-21T17:52:16.529Z,9.60
2023-02-21T17:54:43.195Z,9.60
2023-02-21T17:57:09.885Z,9.60
2023-02-21T17:59:37.077Z,9.60
2023-02-21T18:02:03.785Z,9.60
2023-02-21T18:04:30.533Z,9.60
2023-02-21T18:06:58.424Z,9.50
2023-02-21T18:09:25.647Z,9.50
2023-02-21T18:11:53.652Z,9.50
2023-02-21T18:14:20.575Z,9.50
2023-02-21T18:16:47.668Z,9.50
2023-02-21T18:19:14.701Z,9.50
2023-02-21T18:21:42.517Z,9.50
2023-02-21T18:24:09.293Z,9.50
2023-02-21T18:26:36.066Z,9.50
2023-02-21T18:29:02.854Z,9.40
2023-02-21T18:31:29.511Z,9.40
2023-02-21T18:33:56.664Z,9.40
2023-02-21T18:36:23.272Z,9.40
2023-02-21T18:38:49.885Z,9.40
2023-02-21T18:41:17.898Z,9.30
2023-02-21T18:43:44.671Z,9.30
2023-02-21T18:46:12.361Z,9.30
2023-02-21T18:48:43.489Z,9.30
2023-02-21T18:51:11.088Z,9.30
2023-02-21T18:53:37.859Z,9.40
2023-02-21T18:56:07.972Z,9.40
2023-02-21T18:58:34.563Z,9.30
2023-02-21T19:01:01.243Z,9.30
2023-02-21T19:03:27.963Z,9.20
2023-02-21T19:05:54.649Z,9.20
2023-02-21T19:08:21.560Z,9.20
2023-02-21T19:10:49.752Z,9.20
2023-02-21T19:13:16.706Z,9.20
2023-02-21T19:15:43.406Z,9.20
2023-02-21T19:18:10.042Z,9.20
2023-02-21T19:20:37.057Z,9.20
2023-02-21T19:23:03.801Z,9.20
2023-02-21T19:25:30.994Z,9.20
2023-02-21T19:28:00.424Z,9.20
2023-02-21T19:30:34.129Z,9.20
2023-02-21T19:33:01.389Z,9.20
2023-02-21T19:35:31.762Z,9.20
2023-02-21T19:37:58.463Z,9.20
2023-02-21T19:40:25.280Z,9.20
2023-02-21T19:42:51.956Z,9.10
2023-02-21T19:45:18.783Z,9.20
2023-02-21T19:47:45.692Z,9.20
2023-02-21T19:50:12.586Z,9.20
2023-02-21T19:52:39.240Z,9.20
2023-02-21T19:55:06.559Z,9.30
2023-02-21T19:57:33.175Z,9.30
2023-02-21T19:59:59.814Z,9.30
2023-02-21T20:02:26.445Z,9.30
2023-02-21T20:04:53.124Z,9.30
2023-02-21T20:07:20.897Z,9.30
2023-02-21T20:09:48.326Z,9.30
2023-02-21T20:12:15.044Z,9.30
2023-02-21T20:14:46.081Z,9.30
2023-02-21T20:17:14.290Z,9.30
2023-02-21T20:19:41.807Z,9.30
2023-02-21T20:22:08.708Z,9.30
2023-02-21T20:24:35.320Z,9.30
2023-02-21T20:27:02.043Z,9.20
2023-02-21T20:29:28.721Z,9.20
2023-02-21T20:31:55.808Z,9.20
2023-02-21T20:34:24.336Z,9.20
2023-02-21T20:36:50.966Z,9.20
2023-02-21T20:39:20.441Z,9.20
2023-02-21T20:41:47.278Z,9.20
2023-02-21T20:44:14.221Z,9.20
2023-02-21T20:46:41.279Z,9.20
2023-02-21T20:49:07.913Z,9.10
2023-02-21T20:51:36.639Z,9.10
2023-02-21T20:54:04.671Z,9.20
2023-02-21T20:56:35.493Z,9.20
2023-02-21T20:59:02.685Z,9.10
2023-02-21T21:01:29.649Z,9.20
2023-02-21T21:03:57.091Z,9.10
2023-02-21T21:06:24.036Z,9.20
2023-02-21T21:08:50.688Z,9.10
2023-02-21T21:11:17.723Z,9.20
2023-02-21T21:13:47.692Z,9.20
2023-02-21T21:16:15.535Z,9.20
2023-02-21T21:18:42.935Z,9.10
2023-02-21T21:21:09.562Z,9.10
2023-02-21T21:23:36.188Z,9.20
2023-02-21T21:26:08.449Z,9.10
2023-02-21T21:28:35.867Z,9.10
2023-02-21T21:31:03.410Z,9.10
2023-02-21T21:33:30.076Z,9.10
2023-02-21T21:35:59.607Z,9.00
2023-02-21T21:38:26.719Z,8.90
2023-02-21T21:40:56.622Z,8.90
2023-02-21T21:43:28.244Z,8.80
2023-02-21T21:45:54.937Z,8.80
2023-02-21T21:48:21.555Z,8.80
2023-02-21T21:50:48.162Z,8.80
2023-02-21T21:53:14.792Z,8.80
2023-02-21T21:55:41.398Z,8.80
2023-02-21T21:58:10.565Z,8.80
2023-02-21T22:00:46.248Z,8.80
2023-02-21T22:03:14.359Z,8.80
2023-02-21T22:05:45.020Z,8.80
2023-02-21T22:08:16.402Z,8.80
2023-02-21T22:10:44.580Z,8.80
2023-02-21T22:13:14.345Z,8.80
2023-02-21T22:15:44.189Z,8.80
2023-02-21T22:18:11.438Z,8.80
2023-02-21T22:20:38.040Z,8.80
2023-02-21T22:23:05.545Z,8.80
2023-02-21T22:25:32.545Z,8.80
2023-02-21T22:27:59.502Z,8.80
2023-02-21T22:30:26.116Z,8.80
2023-02-21T22:32:52.753Z,8.80
2023-02-21T22:35:19.616Z,8.80
2023-02-21T22:37:50.747Z,8.80
2023-02-21T22:40:24.058Z,8.80
2023-02-21T22:42:52.463Z,8.80
2023-02-21T22:45:21.826Z,8.80
2023-02-21T22:47:49.605Z,8.70
2023-02-21T22:50:20.315Z,8.70
2023-02-21T22:52:57.539Z,8.60
2023-02-21T22:55:25.337Z,8.60
2023-02-21T22:57:52.496Z,8.60
2023-02-21T23:00:21.544Z,8.50
2023-02-21T23:02:48.706Z,8.60
2023-02-21T23:05:20.405Z,8.60
2023-02-21T23:07:51.295Z,8.50
2023-02-21T23:10:23.821Z,8.50
2023-02-21T23:12:58.067Z,8.50
2023-02-21T23:15:24.753Z,8.50
2023-02-21T23:17:51.524Z,8.60
2023-02-21T23:20:22.406Z,8.60
2023-02-21T23:22:53.224Z,8.60
2023-02-21T23:25:28.181Z,8.70
2023-02-21T23:27:55.448Z,8.60
2023-02-21T23:30:26.842Z,8.70
2023-02-21T23:32:56.782Z,8.60
2023-02-21T23:35:23.395Z,8.60
2023-02-21T23:37:53.196Z,8.70
2023-02-21T23:40:22.273Z,8.60
2023-02-21T23:42:50.270Z,8.60
2023-02-21T23:45:21.160Z,8.60
2023-02-21T23:47:53.155Z,8.60
2023-02-21T23:50:30.640Z,8.60
2023-02-21T23:52:58.875Z,8.60
2023-02-21T23:55:35.593Z,8.60
2023-02-21T23:58:03.860Z,8.60
